sensor_id;sensor_type;location;lat;lon;timestamp;P1;P2;P0
20371;PMS7003;63562;30.520;-97.766;2022-09-17T00:01:20;3.00;3.00;3.00
20371;PMS7003;63562;30.520;-97.766;2022-09-17T00:03:54;4.00;4.00;3.20
20371;PMS7003;63562;30.520;-97.766;2022-09-17T00:06:32;1.00;1.00;1.00
20371;PMS7003;63562;30.520;-97.766;2022-09-17T00:09:04;3.00;3.00;3.00
20371;PMS7003;63562;30.520;-97.766;2022-09-17T00:11:38;3.00;3.00;3.00
20371;PMS7003;63562;30.520;-97.766;2022-09-17T00:14:12;3.20;3.20;3.20
20371;PMS7003;63562;30.520;-97.766;2022-09-17T00:16:46;2.20;2.20;2.00
20371;PMS7003;63562;30.520;-97.766;2022-09-17T00:19:20;3.60;2.80;2.00
20371;PMS7003;63562;30.520;-97.766;2022-09-17T00:21:54;3.20;3.20;3.20
20371;PMS7003;63562;30.520;-97.766;2022-09-17T00:24:26;2.00;2.00;1.80
20371;PMS7003;63562;30.520;-97.766;2022-09-17T00:27:01;2.60;2.60;2.00
20371;PMS7003;63562;30.520;-97.766;2022-09-17T00:29:31;2.40;2.40;1.80
20371;PMS7003;63562;30.520;-97.766;2022-09-17T00:32:02;2.60;2.20;2.00
20371;PMS7003;63562;30.520;-97.766;2022-09-17T00:34:33;2.00;2.00;2.00
20371;PMS7003;63562;30.520;-97.766;2022-09-17T00:37:03;2.00;2.00;2.00
20371;PMS7003;63562;30.520;-97.766;2022-09-17T00:39:34;3.00;3.00;3.00
20371;PMS7003;63562;30.520;-97.766;2022-09-17T00:42:08;2.00;2.00;2.00
20371;PMS7003;63562;30.520;-97.766;2022-09-17T00:44:49;2.00;2.00;2.00
20371;PMS7003;63562;30.520;-97.766;2022-09-17T00:50:06;3.00;3.00;3.00
20371;PMS7003;63562;30.520;-97.766;2022-09-17T00:52:58;2.40;2.40;2.20
20371;PMS7003;63562;30.520;-97.766;2022-09-17T00:55:41;3.60;3.60;3.00
20371;PMS7003;63562;30.520;-97.766;2022-09-17T00:58:32;3.00;3.00;2.00
20371;PMS7003;63562;30.520;-97.766;2022-09-17T01:01:08;3.20;3.00;3.00
20371;PMS7003;63562;30.520;-97.766;2022-09-17T01:03:40;2.00;2.00;1.60
20371;PMS7003;63562;30.520;-97.766;2022-09-17T01:09:35;2.00;2.00;2.00
20371;PMS7003;63562;30.520;-97.766;2022-09-17T01:15:33;2.40;2.40;2.00
20371;PMS7003;63562;30.520;-97.766;2022-09-17T01:21:31;2.00;2.00;1.20
20371;PMS7003;63562;30.520;-97.766;2022-09-17T01:32:59;1.80;1.80;1.00
20371;PMS7003;63562;30.520;-97.766;2022-09-17T01:39:05;1.40;1.40;1.00
20371;PMS7003;63562;30.520;-97.766;2022-09-17T01:41:41;1.60;1.60;1.00
20371;PMS7003;63562;30.520;-97.766;2022-09-17T01:44:30;2.20;2.20;2.00
20371;PMS7003;63562;30.520;-97.766;2022-09-17T01:47:26;1.40;1.40;1.20
20371;PMS7003;63562;30.520;-97.766;2022-09-17T01:50:16;1.80;1.80;1.40
20371;PMS7003;63562;30.520;-97.766;2022-09-17T01:52:54;2.00;2.00;2.00
20371;PMS7003;63562;30.520;-97.766;2022-09-17T01:55:30;2.00;2.00;1.80
20371;PMS7003;63562;30.520;-97.766;2022-09-17T01:58:13;2.00;2.00;2.00
20371;PMS7003;63562;30.520;-97.766;2022-09-17T02:00:52;1.60;1.60;1.00
20371;PMS7003;63562;30.520;-97.766;2022-09-17T02:03:31;1.00;1.00;1.00
20371;PMS7003;63562;30.520;-97.766;2022-09-17T02:06:14;1.00;1.00;1.00
20371;PMS7003;63562;30.520;-97.766;2022-09-17T02:11:22;0.00;0.00;0.00
20371;PMS7003;63562;30.520;-97.766;2022-09-17T02:13:55;2.00;2.00;2.00
20371;PMS7003;63562;30.520;-97.766;2022-09-17T02:16:32;2.00;2.00;1.00
20371;PMS7003;63562;30.520;-97.766;2022-09-17T02:19:05;1.80;1.80;1.20
20371;PMS7003;63562;30.520;-97.766;2022-09-17T02:27:53;2.40;2.40;2.00
20371;PMS7003;63562;30.520;-97.766;2022-09-17T02:30:39;1.00;1.00;1.00
20371;PMS7003;63562;30.520;-97.766;2022-09-17T02:33:14;1.40;1.40;1.40
20371;PMS7003;63562;30.520;-97.766;2022-09-17T02:35:48;1.20;1.20;1.20
20371;PMS7003;63562;30.520;-97.766;2022-09-17T02:38:24;1.60;1.60;1.00
20371;PMS7003;63562;30.520;-97.766;2022-09-17T02:41:05;2.00;2.00;1.20
20371;PMS7003;63562;30.520;-97.766;2022-09-17T02:43:49;1.40;1.40;1.40
20371;PMS7003;63562;30.520;-97.766;2022-09-17T02:53:14;1.20;1.20;1.00
20371;PMS7003;63562;30.520;-97.766;2022-09-17T02:55:44;1.80;1.80;1.20
20371;PMS7003;63562;30.520;-97.766;2022-09-17T03:01:37;1.00;1.00;0.60
20371;PMS7003;63562;30.520;-97.766;2022-09-17T03:04:19;2.00;2.00;1.20
20371;PMS7003;63562;30.520;-97.766;2022-09-17T03:06:52;2.00;2.00;2.00
20371;PMS7003;63562;30.520;-97.766;2022-09-17T03:09:25;1.60;1.60;1.00
20371;PMS7003;63562;30.520;-97.766;2022-09-17T03:11:57;1.40;1.40;1.40
20371;PMS7003;63562;30.520;-97.766;2022-09-17T03:14:34;1.00;1.00;1.00
20371;PMS7003;63562;30.520;-97.766;2022-09-17T03:17:05;0.20;0.20;0.20
20371;PMS7003;63562;30.520;-97.766;2022-09-17T03:19:35;1.00;1.00;1.00
20371;PMS7003;63562;30.520;-97.766;2022-09-17T03:22:16;1.80;1.80;1.20
20371;PMS7003;63562;30.520;-97.766;2022-09-17T03:24:49;2.80;2.80;2.40
20371;PMS7003;63562;30.520;-97.766;2022-09-17T03:27:19;2.00;2.00;2.00
20371;PMS7003;63562;30.520;-97.766;2022-09-17T03:29:50;1.40;1.00;1.00
20371;PMS7003;63562;30.520;-97.766;2022-09-17T03:32:21;1.40;1.40;1.40
20371;PMS7003;63562;30.520;-97.766;2022-09-17T03:34:53;1.20;1.20;1.20
20371;PMS7003;63562;30.520;-97.766;2022-09-17T03:37:34;1.60;1.60;1.00
20371;PMS7003;63562;30.520;-97.766;2022-09-17T03:40:13;2.00;2.00;2.00
20371;PMS7003;63562;30.520;-97.766;2022-09-17T03:42:52;1.60;1.60;1.60
20371;PMS7003;63562;30.520;-97.766;2022-09-17T03:45:23;1.60;1.60;1.00
20371;PMS7003;63562;30.520;-97.766;2022-09-17T03:47:54;1.00;1.00;1.00
20371;PMS7003;63562;30.520;-97.766;2022-09-17T03:50:25;1.00;1.00;1.00
20371;PMS7003;63562;30.520;-97.766;2022-09-17T03:52:56;1.00;1.00;1.00
20371;PMS7003;63562;30.520;-97.766;2022-09-17T03:55:29;1.40;1.40;1.40
20371;PMS7003;63562;30.520;-97.766;2022-09-17T03:58:00;2.00;2.00;2.00
20371;PMS7003;63562;30.520;-97.766;2022-09-17T04:00:30;1.00;1.00;1.00
20371;PMS7003;63562;30.520;-97.766;2022-09-17T04:03:01;1.60;1.60;1.40
20371;PMS7003;63562;30.520;-97.766;2022-09-17T04:05:34;2.40;2.00;2.00
20371;PMS7003;63562;30.520;-97.766;2022-09-17T04:08:04;1.60;1.60;1.00
20371;PMS7003;63562;30.520;-97.766;2022-09-17T04:10:34;2.20;2.20;2.00
20371;PMS7003;63562;30.520;-97.766;2022-09-17T04:13:07;2.00;2.00;1.80
20371;PMS7003;63562;30.520;-97.766;2022-09-17T04:15:39;0.00;0.00;0.00
20371;PMS7003;63562;30.520;-97.766;2022-09-17T04:18:10;1.00;1.00;1.00
20371;PMS7003;63562;30.520;-97.766;2022-09-17T04:20:42;2.40;1.00;1.00
20371;PMS7003;63562;30.520;-97.766;2022-09-17T04:23:14;2.40;2.40;2.00
20371;PMS7003;63562;30.520;-97.766;2022-09-17T04:25:48;2.00;2.00;1.60
20371;PMS7003;63562;30.520;-97.766;2022-09-17T04:28:19;0.40;0.40;0.40
20371;PMS7003;63562;30.520;-97.766;2022-09-17T04:30:49;2.00;2.00;2.00
20371;PMS7003;63562;30.520;-97.766;2022-09-17T04:33:21;1.00;1.00;1.00
20371;PMS7003;63562;30.520;-97.766;2022-09-17T04:35:51;1.60;1.60;1.20
20371;PMS7003;63562;30.520;-97.766;2022-09-17T04:38:22;1.00;1.00;0.80
20371;PMS7003;63562;30.520;-97.766;2022-09-17T04:40:53;1.60;1.60;1.00
20371;PMS7003;63562;30.520;-97.766;2022-09-17T04:43:25;1.60;1.60;1.00
20371;PMS7003;63562;30.520;-97.766;2022-09-17T04:45:56;2.60;1.00;1.00
20371;PMS7003;63562;30.520;-97.766;2022-09-17T04:48:30;1.40;1.00;1.00
20371;PMS7003;63562;30.520;-97.766;2022-09-17T04:51:11;1.00;1.00;1.00
20371;PMS7003;63562;30.520;-97.766;2022-09-17T04:53:42;1.60;1.60;1.40
20371;PMS7003;63562;30.520;-97.766;2022-09-17T04:56:13;1.00;1.00;1.00
20371;PMS7003;63562;30.520;-97.766;2022-09-17T04:58:46;1.00;1.00;1.00
20371;PMS7003;63562;30.520;-97.766;2022-09-17T05:01:18;1.00;1.00;1.00
20371;PMS7003;63562;30.520;-97.766;2022-09-17T05:03:49;0.80;0.80;0.80
20371;PMS7003;63562;30.520;-97.766;2022-09-17T05:06:21;1.00;1.00;1.00
20371;PMS7003;63562;30.520;-97.766;2022-09-17T05:08:52;1.00;1.00;1.00
20371;PMS7003;63562;30.520;-97.766;2022-09-17T05:11:23;1.00;1.00;1.00
20371;PMS7003;63562;30.520;-97.766;2022-09-17T05:13:53;0.00;0.00;0.00
20371;PMS7003;63562;30.520;-97.766;2022-09-17T05:16:23;1.00;1.00;1.00
20371;PMS7003;63562;30.520;-97.766;2022-09-17T05:18:54;1.00;1.00;1.00
20371;PMS7003;63562;30.520;-97.766;2022-09-17T05:21:26;3.00;2.00;2.00
20371;PMS7003;63562;30.520;-97.766;2022-09-17T05:23:57;1.00;1.00;1.00
20371;PMS7003;63562;30.520;-97.766;2022-09-17T05:26:29;1.00;1.00;1.00
20371;PMS7003;63562;30.520;-97.766;2022-09-17T05:28:59;1.00;1.00;1.00
20371;PMS7003;63562;30.520;-97.766;2022-09-17T05:31:30;0.00;0.00;0.00
20371;PMS7003;63562;30.520;-97.766;2022-09-17T05:34:01;1.00;1.00;1.00
20371;PMS7003;63562;30.520;-97.766;2022-09-17T05:36:33;1.00;1.00;1.00
20371;PMS7003;63562;30.520;-97.766;2022-09-17T05:39:11;1.00;1.00;1.00
20371;PMS7003;63562;30.520;-97.766;2022-09-17T05:41:41;1.00;1.00;1.00
20371;PMS7003;63562;30.520;-97.766;2022-09-17T05:44:13;3.00;1.00;1.00
20371;PMS7003;63562;30.520;-97.766;2022-09-17T05:46:46;1.80;1.80;1.40
20371;PMS7003;63562;30.520;-97.766;2022-09-17T05:49:23;1.00;1.00;1.00
20371;PMS7003;63562;30.520;-97.766;2022-09-17T05:51:56;1.00;1.00;0.60
20371;PMS7003;63562;30.520;-97.766;2022-09-17T05:54:27;0.80;0.80;0.20
20371;PMS7003;63562;30.520;-97.766;2022-09-17T05:57:01;1.00;1.00;1.00
20371;PMS7003;63562;30.520;-97.766;2022-09-17T05:59:31;1.00;1.00;1.00
20371;PMS7003;63562;30.520;-97.766;2022-09-17T06:02:04;3.20;2.60;1.00
20371;PMS7003;63562;30.520;-97.766;2022-09-17T06:04:34;0.80;0.80;0.80
20371;PMS7003;63562;30.520;-97.766;2022-09-17T06:07:05;1.00;1.00;1.00
20371;PMS7003;63562;30.520;-97.766;2022-09-17T06:09:37;0.80;0.80;0.80
20371;PMS7003;63562;30.520;-97.766;2022-09-17T06:12:09;0.00;0.00;0.00
20371;PMS7003;63562;30.520;-97.766;2022-09-17T06:14:39;1.00;1.00;1.00
20371;PMS7003;63562;30.520;-97.766;2022-09-17T06:17:12;0.00;0.00;0.00
20371;PMS7003;63562;30.520;-97.766;2022-09-17T06:19:48;1.00;1.00;1.00
20371;PMS7003;63562;30.520;-97.766;2022-09-17T06:22:20;0.80;0.80;0.80
20371;PMS7003;63562;30.520;-97.766;2022-09-17T06:24:55;0.00;0.00;0.00
20371;PMS7003;63562;30.520;-97.766;2022-09-17T06:27:31;2.80;1.20;1.00
20371;PMS7003;63562;30.520;-97.766;2022-09-17T06:30:08;0.20;0.20;0.00
20371;PMS7003;63562;30.520;-97.766;2022-09-17T06:32:40;0.60;0.60;0.60
20371;PMS7003;63562;30.520;-97.766;2022-09-17T06:35:11;1.00;1.00;1.00
20371;PMS7003;63562;30.520;-97.766;2022-09-17T06:37:47;1.40;1.40;1.00
20371;PMS7003;63562;30.520;-97.766;2022-09-17T06:40:18;1.20;1.20;1.00
20371;PMS7003;63562;30.520;-97.766;2022-09-17T06:42:55;1.00;1.00;0.80
20371;PMS7003;63562;30.520;-97.766;2022-09-17T06:45:28;1.00;1.00;1.00
20371;PMS7003;63562;30.520;-97.766;2022-09-17T06:48:02;0.40;0.40;0.40
20371;PMS7003;63562;30.520;-97.766;2022-09-17T06:50:33;1.00;1.00;1.00
20371;PMS7003;63562;30.520;-97.766;2022-09-17T06:53:09;0.80;0.80;0.80
20371;PMS7003;63562;30.520;-97.766;2022-09-17T06:55:40;2.00;2.00;1.00
20371;PMS7003;63562;30.520;-97.766;2022-09-17T06:58:11;0.60;0.60;0.60
20371;PMS7003;63562;30.520;-97.766;2022-09-17T07:00:42;1.00;1.00;1.00
20371;PMS7003;63562;30.520;-97.766;2022-09-17T07:03:13;0.80;0.80;0.20
20371;PMS7003;63562;30.520;-97.766;2022-09-17T07:05:50;0.00;0.00;0.00
20371;PMS7003;63562;30.520;-97.766;2022-09-17T07:08:21;0.00;0.00;0.00
20371;PMS7003;63562;30.520;-97.766;2022-09-17T07:10:55;0.00;0.00;0.00
20371;PMS7003;63562;30.520;-97.766;2022-09-17T07:13:29;1.00;1.00;1.00
20371;PMS7003;63562;30.520;-97.766;2022-09-17T07:16:01;1.00;1.00;0.20
20371;PMS7003;63562;30.520;-97.766;2022-09-17T07:18:33;0.80;0.80;0.80
20371;PMS7003;63562;30.520;-97.766;2022-09-17T07:21:05;0.60;0.60;0.40
20371;PMS7003;63562;30.520;-97.766;2022-09-17T07:23:36;1.00;1.00;0.00
20371;PMS7003;63562;30.520;-97.766;2022-09-17T07:26:12;1.00;1.00;1.00
20371;PMS7003;63562;30.520;-97.766;2022-09-17T07:28:44;0.00;0.00;0.00
20371;PMS7003;63562;30.520;-97.766;2022-09-17T07:31:17;1.60;1.60;1.00
20371;PMS7003;63562;30.520;-97.766;2022-09-17T07:33:48;2.00;2.00;1.00
20371;PMS7003;63562;30.520;-97.766;2022-09-17T07:36:19;1.00;1.00;1.00
20371;PMS7003;63562;30.520;-97.766;2022-09-17T07:38:49;1.40;1.40;1.00
20371;PMS7003;63562;30.520;-97.766;2022-09-17T07:41:20;1.40;1.20;1.00
20371;PMS7003;63562;30.520;-97.766;2022-09-17T07:43:51;1.00;1.00;1.00
20371;PMS7003;63562;30.520;-97.766;2022-09-17T07:46:24;1.40;1.40;1.40
20371;PMS7003;63562;30.520;-97.766;2022-09-17T07:48:55;1.00;1.00;0.00
20371;PMS7003;63562;30.520;-97.766;2022-09-17T07:51:26;0.40;0.40;0.00
20371;PMS7003;63562;30.520;-97.766;2022-09-17T07:53:57;2.20;2.20;2.00
20371;PMS7003;63562;30.520;-97.766;2022-09-17T07:56:30;1.00;1.00;1.00
20371;PMS7003;63562;30.520;-97.766;2022-09-17T07:59:04;1.20;1.20;1.20
20371;PMS7003;63562;30.520;-97.766;2022-09-17T08:01:41;3.00;1.00;1.00
20371;PMS7003;63562;30.520;-97.766;2022-09-17T08:04:14;1.60;1.60;1.60
20371;PMS7003;63562;30.520;-97.766;2022-09-17T08:06:45;2.00;2.00;1.20
20371;PMS7003;63562;30.520;-97.766;2022-09-17T08:09:17;2.00;2.00;1.40
20371;PMS7003;63562;30.520;-97.766;2022-09-17T08:11:49;2.40;2.40;2.40
20371;PMS7003;63562;30.520;-97.766;2022-09-17T08:14:23;3.60;2.40;2.00
20371;PMS7003;63562;30.520;-97.766;2022-09-17T08:16:57;1.20;1.20;1.00
20371;PMS7003;63562;30.520;-97.766;2022-09-17T08:19:29;1.20;1.20;1.20
20371;PMS7003;63562;30.520;-97.766;2022-09-17T08:22:01;1.40;1.40;1.40
20371;PMS7003;63562;30.520;-97.766;2022-09-17T08:24:31;1.00;1.00;1.00
20371;PMS7003;63562;30.520;-97.766;2022-09-17T08:27:04;1.60;1.60;1.60
20371;PMS7003;63562;30.520;-97.766;2022-09-17T08:29:34;1.40;1.40;1.00
20371;PMS7003;63562;30.520;-97.766;2022-09-17T08:32:04;1.00;1.00;1.00
20371;PMS7003;63562;30.520;-97.766;2022-09-17T08:34:37;2.40;2.40;1.60
20371;PMS7003;63562;30.520;-97.766;2022-09-17T08:37:07;2.00;2.00;1.00
20371;PMS7003;63562;30.520;-97.766;2022-09-17T08:39:37;0.60;0.60;0.20
20371;PMS7003;63562;30.520;-97.766;2022-09-17T08:44:40;1.80;1.80;1.80
20371;PMS7003;63562;30.520;-97.766;2022-09-17T08:47:23;2.00;2.00;1.80
20371;PMS7003;63562;30.520;-97.766;2022-09-17T08:50:02;2.40;2.40;2.00
20371;PMS7003;63562;30.520;-97.766;2022-09-17T08:55:26;2.00;2.00;2.00
20371;PMS7003;63562;30.520;-97.766;2022-09-17T09:01:11;1.80;1.80;1.00
20371;PMS7003;63562;30.520;-97.766;2022-09-17T09:03:52;3.00;3.00;3.00
20371;PMS7003;63562;30.520;-97.766;2022-09-17T09:06:45;3.00;3.00;2.60
20371;PMS7003;63562;30.520;-97.766;2022-09-17T09:09:22;2.40;2.40;2.00
20371;PMS7003;63562;30.520;-97.766;2022-09-17T09:12:01;3.00;3.00;2.00
20371;PMS7003;63562;30.520;-97.766;2022-09-17T09:14:39;4.00;4.00;3.00
20371;PMS7003;63562;30.520;-97.766;2022-09-17T09:17:19;3.25;3.25;2.50
20371;PMS7003;63562;30.520;-97.766;2022-09-17T09:19:56;4.20;4.20;3.00
20371;PMS7003;63562;30.520;-97.766;2022-09-17T09:25:17;5.80;5.80;4.00
20371;PMS7003;63562;30.520;-97.766;2022-09-17T09:28:05;5.75;5.50;4.75
20371;PMS7003;63562;30.520;-97.766;2022-09-17T09:30:55;3.25;3.25;3.00
20371;PMS7003;63562;30.520;-97.766;2022-09-17T09:33:44;4.25;4.25;3.50
20371;PMS7003;63562;30.520;-97.766;2022-09-17T09:36:15;2.75;2.75;2.50
20371;PMS7003;63562;30.520;-97.766;2022-09-17T09:39:00;3.50;3.50;3.00
20371;PMS7003;63562;30.520;-97.766;2022-09-17T09:41:39;5.00;5.00;4.50
20371;PMS7003;63562;30.520;-97.766;2022-09-17T09:44:24;5.00;5.00;4.00
20371;PMS7003;63562;30.520;-97.766;2022-09-17T09:47:06;4.00;4.00;3.50
20371;PMS7003;63562;30.520;-97.766;2022-09-17T09:49:48;3.75;3.75;3.25
20371;PMS7003;63562;30.520;-97.766;2022-09-17T09:52:50;3.00;3.00;3.00
20371;PMS7003;63562;30.520;-97.766;2022-09-17T09:58:47;5.75;4.00;3.25
20371;PMS7003;63562;30.520;-97.766;2022-09-17T10:01:24;3.00;3.00;3.00
20371;PMS7003;63562;30.520;-97.766;2022-09-17T10:03:56;2.60;2.60;2.00
20371;PMS7003;63562;30.520;-97.766;2022-09-17T10:06:28;2.00;2.00;2.00
20371;PMS7003;63562;30.520;-97.766;2022-09-17T10:11:32;4.00;3.25;3.00
20371;PMS7003;63562;30.520;-97.766;2022-09-17T10:22:43;2.50;2.50;2.00
20371;PMS7003;63562;30.520;-97.766;2022-09-17T10:28:03;3.25;3.25;3.00
20371;PMS7003;63562;30.520;-97.766;2022-09-17T10:30:56;4.50;4.50;4.00
20371;PMS7003;63562;30.520;-97.766;2022-09-17T10:36:50;3.00;3.00;3.00
20371;PMS7003;63562;30.520;-97.766;2022-09-17T10:42:13;3.00;3.00;2.75
20371;PMS7003;63562;30.520;-97.766;2022-09-17T10:44:52;2.25;2.25;2.00
20371;PMS7003;63562;30.520;-97.766;2022-09-17T10:47:28;3.20;3.20;3.00
20371;PMS7003;63562;30.520;-97.766;2022-09-17T10:50:05;3.25;2.50;2.00
20371;PMS7003;63562;30.520;-97.766;2022-09-17T10:52:46;2.00;2.00;1.75
20371;PMS7003;63562;30.520;-97.766;2022-09-17T10:56:25;2.00;2.00;2.00
20371;PMS7003;63562;30.520;-97.766;2022-09-17T10:58:47;3.00;3.00;2.50
20371;PMS7003;63562;30.520;-97.766;2022-09-17T11:04:18;2.00;2.00;2.00
20371;PMS7003;63562;30.520;-97.766;2022-09-17T11:06:59;2.50;2.50;2.00
20371;PMS7003;63562;30.520;-97.766;2022-09-17T11:09:49;3.00;3.00;2.25
20371;PMS7003;63562;30.520;-97.766;2022-09-17T11:13:00;4.75;4.75;3.75
20371;PMS7003;63562;30.520;-97.766;2022-09-17T11:18:43;3.00;3.00;3.00
20371;PMS7003;63562;30.520;-97.766;2022-09-17T11:21:25;3.25;3.25;3.25
20371;PMS7003;63562;30.520;-97.766;2022-09-17T11:24:25;4.00;4.00;3.00
20371;PMS7003;63562;30.520;-97.766;2022-09-17T11:27:15;4.00;4.00;3.50
20371;PMS7003;63562;30.520;-97.766;2022-09-17T11:36:00;3.00;3.00;2.75
20371;PMS7003;63562;30.520;-97.766;2022-09-17T11:38:55;4.25;4.25;4.00
20371;PMS7003;63562;30.520;-97.766;2022-09-17T11:41:35;4.50;4.50;3.75
20371;PMS7003;63562;30.520;-97.766;2022-09-17T11:44:23;3.50;3.00;3.00
20371;PMS7003;63562;30.520;-97.766;2022-09-17T11:46:56;4.00;4.00;4.00
20371;PMS7003;63562;30.520;-97.766;2022-09-17T11:49:37;4.75;4.75;4.00
20371;PMS7003;63562;30.520;-97.766;2022-09-17T11:52:12;4.75;4.75;3.50
20371;PMS7003;63562;30.520;-97.766;2022-09-17T11:57:58;4.75;4.75;4.00
20371;PMS7003;63562;30.520;-97.766;2022-09-17T12:00:39;4.00;4.00;4.00
20371;PMS7003;63562;30.520;-97.766;2022-09-17T12:03:26;5.00;5.00;4.00
20371;PMS7003;63562;30.520;-97.766;2022-09-17T12:06:27;5.00;5.00;5.00
20371;PMS7003;63562;30.520;-97.766;2022-09-17T12:21:01;4.25;4.25;3.75
20371;PMS7003;63562;30.520;-97.766;2022-09-17T12:23:37;5.50;5.00;4.00
20371;PMS7003;63562;30.520;-97.766;2022-09-17T12:26:15;4.25;4.25;3.75
20371;PMS7003;63562;30.520;-97.766;2022-09-17T12:32:02;4.25;4.25;3.25
20371;PMS7003;63562;30.520;-97.766;2022-09-17T12:44:09;6.25;6.25;5.00
20371;PMS7003;63562;30.520;-97.766;2022-09-17T12:49:37;5.50;5.50;5.00
20371;PMS7003;63562;30.520;-97.766;2022-09-17T12:52:33;4.00;4.00;4.00
20371;PMS7003;63562;30.520;-97.766;2022-09-17T13:04:10;3.25;3.25;3.00
20371;PMS7003;63562;30.520;-97.766;2022-09-17T13:10:11;3.50;3.50;3.25
20371;PMS7003;63562;30.520;-97.766;2022-09-17T13:13:01;2.60;2.60;2.20
20371;PMS7003;63562;30.520;-97.766;2022-09-17T13:22:18;4.00;4.00;4.00
20371;PMS7003;63562;30.520;-97.766;2022-09-17T13:24:24;3.60;3.60;3.20
20371;PMS7003;63562;30.520;-97.766;2022-09-17T13:27:00;4.50;4.50;4.25
20371;PMS7003;63562;30.520;-97.766;2022-09-17T13:37:40;3.00;3.00;2.80
20371;PMS7003;63562;30.520;-97.766;2022-09-17T13:40:29;2.50;2.50;2.50
20371;PMS7003;63562;30.520;-97.766;2022-09-17T13:48:36;3.00;3.00;3.00
20371;PMS7003;63562;30.520;-97.766;2022-09-17T13:54:02;1.60;1.60;1.20
20371;PMS7003;63562;30.520;-97.766;2022-09-17T13:56:39;1.00;1.00;1.00
20371;PMS7003;63562;30.520;-97.766;2022-09-17T14:01:56;2.20;2.20;2.00
20371;PMS7003;63562;30.520;-97.766;2022-09-17T14:08:45;3.00;3.00;2.00
20371;PMS7003;63562;30.520;-97.766;2022-09-17T14:10:59;2.80;2.80;2.60
20371;PMS7003;63562;30.520;-97.766;2022-09-17T14:13:40;3.00;3.00;2.60
20371;PMS7003;63562;30.520;-97.766;2022-09-17T14:16:22;1.00;1.00;1.00
20371;PMS7003;63562;30.520;-97.766;2022-09-17T14:22:24;4.00;4.00;3.00
20371;PMS7003;63562;30.520;-97.766;2022-09-17T14:24:56;2.80;2.80;2.00
20371;PMS7003;63562;30.520;-97.766;2022-09-17T14:30:22;2.20;2.20;2.00
20371;PMS7003;63562;30.520;-97.766;2022-09-17T14:33:11;1.00;1.00;0.60
20371;PMS7003;63562;30.520;-97.766;2022-09-17T14:35:45;1.80;1.80;1.40
20371;PMS7003;63562;30.520;-97.766;2022-09-17T14:41:28;2.40;2.40;2.00
20371;PMS7003;63562;30.520;-97.766;2022-09-17T14:44:17;2.20;2.20;2.00
20371;PMS7003;63562;30.520;-97.766;2022-09-17T14:47:02;2.00;2.00;1.20
20371;PMS7003;63562;30.520;-97.766;2022-09-17T14:49:41;2.00;2.00;1.80
20371;PMS7003;63562;30.520;-97.766;2022-09-17T14:55:13;2.60;2.60;2.00
20371;PMS7003;63562;30.520;-97.766;2022-09-17T14:57:54;2.00;2.00;1.80
20371;PMS7003;63562;30.520;-97.766;2022-09-17T15:00:32;2.00;2.00;2.00
20371;PMS7003;63562;30.520;-97.766;2022-09-17T15:03:05;2.20;2.20;2.00
20371;PMS7003;63562;30.520;-97.766;2022-09-17T15:05:51;1.80;1.80;1.60
20371;PMS7003;63562;30.520;-97.766;2022-09-17T15:08:23;2.40;2.40;2.00
20371;PMS7003;63562;30.520;-97.766;2022-09-17T15:11:00;3.00;3.00;3.00
20371;PMS7003;63562;30.520;-97.766;2022-09-17T15:13:50;3.60;3.60;3.00
20371;PMS7003;63562;30.520;-97.766;2022-09-17T15:19:02;3.00;3.00;3.00
20371;PMS7003;63562;30.520;-97.766;2022-09-17T15:21:33;2.40;2.40;2.00
20371;PMS7003;63562;30.520;-97.766;2022-09-17T15:24:16;4.40;4.40;3.40
20371;PMS7003;63562;30.520;-97.766;2022-09-17T15:27:27;3.80;3.80;3.20
20371;PMS7003;63562;30.520;-97.766;2022-09-17T15:30:12;3.00;3.00;2.80
20371;PMS7003;63562;30.520;-97.766;2022-09-17T15:32:48;3.60;3.60;3.00
20371;PMS7003;63562;30.520;-97.766;2022-09-17T15:35:22;3.80;3.80;3.00
20371;PMS7003;63562;30.520;-97.766;2022-09-17T15:40:50;3.40;3.40;3.00
20371;PMS7003;63562;30.520;-97.766;2022-09-17T15:43:29;3.40;3.00;2.40
20371;PMS7003;63562;30.520;-97.766;2022-09-17T15:46:23;2.60;2.60;2.00
20371;PMS7003;63562;30.520;-97.766;2022-09-17T15:48:58;3.00;3.00;2.80
20371;PMS7003;63562;30.520;-97.766;2022-09-17T15:51:32;4.80;3.00;3.00
20371;PMS7003;63562;30.520;-97.766;2022-09-17T15:54:05;3.80;3.80;3.20
20371;PMS7003;63562;30.520;-97.766;2022-09-17T15:56:57;1.20;1.20;1.00
20371;PMS7003;63562;30.520;-97.766;2022-09-17T15:59:34;3.00;3.00;2.20
20371;PMS7003;63562;30.520;-97.766;2022-09-17T16:02:04;3.20;3.20;2.80
20371;PMS7003;63562;30.520;-97.766;2022-09-17T16:04:46;3.00;3.00;2.60
20371;PMS7003;63562;30.520;-97.766;2022-09-17T16:07:28;2.80;2.80;2.00
20371;PMS7003;63562;30.520;-97.766;2022-09-17T16:10:00;2.20;2.20;2.00
20371;PMS7003;63562;30.520;-97.766;2022-09-17T16:12:31;3.80;3.80;3.40
20371;PMS7003;63562;30.520;-97.766;2022-09-17T16:15:05;3.40;3.40;2.80
20371;PMS7003;63562;30.520;-97.766;2022-09-17T16:20:24;2.00;2.00;1.80
20371;PMS7003;63562;30.520;-97.766;2022-09-17T16:22:55;2.20;2.20;2.00
20371;PMS7003;63562;30.520;-97.766;2022-09-17T16:25:31;2.00;2.00;1.00
20371;PMS7003;63562;30.520;-97.766;2022-09-17T16:28:02;3.60;3.60;3.20
20371;PMS7003;63562;30.520;-97.766;2022-09-17T16:30:42;3.80;3.80;3.20
20371;PMS7003;63562;30.520;-97.766;2022-09-17T16:33:17;3.00;3.00;2.40
20371;PMS7003;63562;30.520;-97.766;2022-09-17T16:35:49;4.80;4.80;3.00
20371;PMS7003;63562;30.520;-97.766;2022-09-17T16:38:27;5.00;4.00;3.00
20371;PMS7003;63562;30.520;-97.766;2022-09-17T16:40:56;3.00;3.00;3.00
20371;PMS7003;63562;30.520;-97.766;2022-09-17T16:43:30;5.00;3.20;3.00
20371;PMS7003;63562;30.520;-97.766;2022-09-17T16:46:01;3.20;3.20;3.00
20371;PMS7003;63562;30.520;-97.766;2022-09-17T16:48:33;4.20;3.20;3.00
20371;PMS7003;63562;30.520;-97.766;2022-09-17T16:51:08;4.00;4.00;4.00
20371;PMS7003;63562;30.520;-97.766;2022-09-17T16:53:40;3.00;3.00;3.00
20371;PMS7003;63562;30.520;-97.766;2022-09-17T16:56:12;2.00;2.00;1.80
20371;PMS7003;63562;30.520;-97.766;2022-09-17T16:58:43;4.00;4.00;3.20
20371;PMS7003;63562;30.520;-97.766;2022-09-17T17:01:13;3.60;3.60;3.20
20371;PMS7003;63562;30.520;-97.766;2022-09-17T17:03:44;3.00;3.00;3.00
20371;PMS7003;63562;30.520;-97.766;2022-09-17T17:06:17;1.60;1.60;1.00
20371;PMS7003;63562;30.520;-97.766;2022-09-17T17:08:50;1.80;1.80;1.40
20371;PMS7003;63562;30.520;-97.766;2022-09-17T17:11:21;2.40;2.40;2.00
20371;PMS7003;63562;30.520;-97.766;2022-09-17T17:13:52;3.00;3.00;3.00
20371;PMS7003;63562;30.520;-97.766;2022-09-17T17:16:25;3.00;3.00;2.80
20371;PMS7003;63562;30.520;-97.766;2022-09-17T17:18:58;3.00;3.00;2.00
20371;PMS7003;63562;30.520;-97.766;2022-09-17T17:21:30;1.80;1.80;1.80
20371;PMS7003;63562;30.520;-97.766;2022-09-17T17:24:03;1.80;1.80;1.00
20371;PMS7003;63562;30.520;-97.766;2022-09-17T17:26:35;2.60;2.60;2.00
20371;PMS7003;63562;30.520;-97.766;2022-09-17T17:29:06;2.40;2.40;2.20
20371;PMS7003;63562;30.520;-97.766;2022-09-17T17:31:37;3.00;3.00;2.00
20371;PMS7003;63562;30.520;-97.766;2022-09-17T17:34:07;2.20;2.20;2.00
20371;PMS7003;63562;30.520;-97.766;2022-09-17T17:36:41;4.20;4.20;3.80
20371;PMS7003;63562;30.520;-97.766;2022-09-17T17:39:11;4.00;2.60;2.60
20371;PMS7003;63562;30.520;-97.766;2022-09-17T17:41:41;2.80;2.80;2.80
20371;PMS7003;63562;30.520;-97.766;2022-09-17T17:44:18;2.40;2.40;2.00
20371;PMS7003;63562;30.520;-97.766;2022-09-17T17:46:48;2.00;2.00;2.00
20371;PMS7003;63562;30.520;-97.766;2022-09-17T17:49:18;2.00;2.00;2.00
20371;PMS7003;63562;30.520;-97.766;2022-09-17T17:51:49;2.20;2.20;1.80